createdAt,value
2018-05-08T00:00:01.025Z,14.20
2018-05-08T00:02:27.995Z,14.20
2018-05-08T00:04:54.945Z,14.10
2018-05-08T00:07:21.935Z,14.10
2018-05-08T00:09:49.665Z,14.10
2018-05-08T00:12:17.078Z,14.10
2018-05-08T00:14:44.494Z,14.10
2018-05-08T00:17:11.899Z,14.20
2018-05-08T00:19:39.658Z,14.20
2018-05-08T00:22:07.378Z,14.10
2018-05-08T00:24:34.350Z,14.10
2018-05-08T00:27:01.317Z,14.20
2018-05-08T00:29:28.275Z,14.10
2018-05-08T00:31:55.228Z,14.10
2018-05-08T00:34:22.958Z,14.00
2018-05-08T00:36:49.918Z,14.00
2018-05-08T00:39:17.343Z,14.00
2018-05-08T00:41:45.519Z,13.90
2018-05-08T00:44:12.938Z,13.90
2018-05-08T00:46:40.670Z,13.90
2018-05-08T00:49:07.650Z,13.90
2018-05-08T00:51:34.614Z,13.90
2018-05-08T00:54:01.637Z,14.00
2018-05-08T00:56:28.603Z,14.00
2018-05-08T00:58:55.559Z,14.10
2018-05-08T01:01:22.541Z,14.00
2018-05-08T01:03:49.529Z,14.00
2018-05-08T01:06:16.495Z,13.90
2018-05-08T01:08:43.454Z,13.80
2018-05-08T01:11:10.422Z,13.90
2018-05-08T01:13:37.382Z,13.80
2018-05-08T01:16:04.362Z,13.70
2018-05-08T01:18:32.107Z,13.60
2018-05-08T01:20:59.826Z,13.70
2018-05-08T01:23:27.558Z,13.60
2018-05-08T01:25:54.536Z,13.60
2018-05-08T01:28:22.261Z,13.50
2018-05-08T01:30:49.227Z,13.50
2018-05-08T01:33:16.198Z,13.50
2018-05-08T01:35:43.165Z,13.50
2018-05-08T01:38:10.127Z,13.50
2018-05-08T01:40:37.103Z,13.40
2018-05-08T01:43:04.066Z,13.40
2018-05-08T01:45:31.802Z,13.30
2018-05-08T01:47:58.787Z,13.30
2018-05-08T01:50:26.178Z,13.30
2018-05-08T01:52:54.351Z,13.30
2018-05-08T01:55:22.531Z,13.30
2018-05-08T01:57:49.501Z,13.30
2018-05-08T02:00:16.470Z,13.10
2018-05-08T02:02:44.219Z,13.00
2018-05-08T02:05:11.954Z,13.00
2018-05-08T02:07:39.682Z,13.10
2018-05-08T02:10:06.659Z,13.10
2018-05-08T02:12:34.386Z,13.00
2018-05-08T02:15:02.107Z,13.00
2018-05-08T02:17:29.099Z,12.90
2018-05-08T02:19:56.066Z,12.90
2018-05-08T02:22:23.052Z,12.90
2018-05-08T02:24:50.030Z,12.90
2018-05-08T02:27:17.001Z,12.90
2018-05-08T02:29:43.991Z,12.80
2018-05-08T02:32:10.976Z,12.80
2018-05-08T02:34:38.717Z,12.70
2018-05-08T02:37:06.516Z,12.80
2018-05-08T02:39:33.486Z,12.80
2018-05-08T02:42:01.226Z,12.80
2018-05-08T02:44:28.218Z,12.80
2018-05-08T02:46:55.182Z,12.60
2018-05-08T02:49:22.203Z,12.70
2018-05-08T02:51:49.175Z,12.60
2018-05-08T02:54:16.146Z,12.60
2018-05-08T02:56:43.115Z,12.60
2018-05-08T02:59:10.857Z,12.40
2018-05-08T03:01:38.254Z,12.40
2018-05-08T03:04:05.711Z,12.40
2018-05-08T03:06:33.136Z,12.50
2018-05-08T03:09:00.540Z,12.50
2018-05-08T03:11:28.705Z,12.50
2018-05-08T03:13:56.113Z,12.50
2018-05-08T03:16:23.519Z,12.50
2018-05-08T03:18:50.938Z,12.50
2018-05-08T03:21:18.332Z,12.40
2018-05-08T03:23:45.750Z,12.40
2018-05-08T03:26:13.142Z,12.30
2018-05-08T03:28:41.327Z,12.40
2018-05-08T03:31:08.739Z,12.30
2018-05-08T03:33:36.914Z,12.40
2018-05-08T03:36:04.338Z,12.40
2018-05-08T03:38:31.731Z,12.40
2018-05-08T03:40:59.164Z,12.40
2018-05-08T03:43:26.591Z,12.40
2018-05-08T03:45:53.982Z,12.40
2018-05-08T03:48:22.166Z,12.40
2018-05-08T03:50:50.342Z,12.40
2018-05-08T03:53:17.758Z,12.40
2018-05-08T03:55:45.942Z,12.40
2018-05-08T03:58:13.364Z,12.40
2018-05-08T04:00:47.143Z,12.40
2018-05-08T04:03:20.786Z,12.50
2018-05-08T04:08:43.114Z,12.60
2018-05-08T04:11:10.079Z,12.60
2018-05-08T04:13:37.499Z,12.60
2018-05-08T04:16:04.445Z,12.60
2018-05-08T04:18:31.420Z,12.30
2018-05-08T04:20:58.530Z,11.90
2018-05-08T04:23:25.475Z,11.80
2018-05-08T04:25:52.460Z,11.70
2018-05-08T04:28:20.195Z,11.70
2018-05-08T04:30:47.154Z,11.70
2018-05-08T04:33:15.331Z,11.60
2018-05-08T04:35:42.306Z,11.70
2018-05-08T04:38:09.287Z,11.70
2018-05-08T04:40:37.023Z,11.90
2018-05-08T04:43:03.979Z,11.90
2018-05-08T04:45:30.974Z,12.00
2018-05-08T04:47:58.735Z,12.30
2018-05-08T04:50:25.716Z,12.30
2018-05-08T04:52:53.111Z,12.50
2018-05-08T04:55:20.834Z,12.70
2018-05-08T04:57:47.806Z,12.70
2018-05-08T05:00:15.550Z,12.90
2018-05-08T05:02:43.378Z,13.00
2018-05-08T05:05:10.715Z,13.00
2018-05-08T05:07:37.684Z,13.00
2018-05-08T05:10:05.876Z,13.00
2018-05-08T05:12:32.831Z,13.00
2018-05-08T05:15:00.238Z,13.00
2018-05-08T05:17:27.642Z,13.10
2018-05-08T05:19:55.388Z,13.20
2018-05-08T05:22:23.106Z,13.20
2018-05-08T05:24:50.078Z,13.20
2018-05-08T05:27:17.048Z,13.20
2018-05-08T05:29:44.020Z,13.30
2018-05-08T05:32:11.758Z,13.30
2018-05-08T05:34:38.722Z,13.30
2018-05-08T05:37:05.690Z,13.30
2018-05-08T05:39:32.651Z,13.40
2018-05-08T05:41:59.636Z,13.50
2018-05-08T05:44:26.590Z,13.50
2018-05-08T05:46:53.550Z,13.50
2018-05-08T05:49:21.298Z,13.60
2018-05-08T05:51:48.246Z,13.60
2018-05-08T05:54:15.978Z,13.80
2018-05-08T05:56:43.714Z,14.00
2018-05-08T05:59:10.690Z,14.00
2018-05-08T06:01:38.426Z,14.10
2018-05-08T06:04:06.607Z,14.30
2018-05-08T06:06:33.571Z,14.20
2018-05-08T06:09:00.538Z,14.40
2018-05-08T06:11:28.262Z,14.50
2018-05-08T06:13:55.248Z,14.50
2018-05-08T06:16:22.972Z,14.70
2018-05-08T06:18:49.915Z,14.70
2018-05-08T06:21:16.894Z,14.80
2018-05-08T06:23:43.879Z,14.90
2018-05-08T06:26:11.297Z,14.90
2018-05-08T06:28:39.504Z,15.10
2018-05-08T06:31:06.895Z,15.10
2018-05-08T06:33:35.074Z,15.30
2018-05-08T06:36:02.487Z,15.30
2018-05-08T06:38:30.658Z,15.40
2018-05-08T06:40:58.839Z,15.40
2018-05-08T06:43:25.798Z,15.40
2018-05-08T06:45:52.778Z,15.50
2018-05-08T06:48:20.502Z,15.70
2018-05-08T06:50:47.471Z,15.60
2018-05-08T06:53:14.430Z,15.80
2018-05-08T06:55:41.404Z,15.90
2018-05-08T06:58:08.795Z,16.00
2018-05-08T07:00:36.218Z,16.10
2018-05-08T07:03:03.631Z,16.20
2018-05-08T07:05:31.811Z,16.40
2018-05-08T07:07:59.228Z,16.40
2018-05-08T07:10:26.649Z,16.60
2018-05-08T07:12:54.056Z,16.80
2018-05-08T07:15:21.468Z,16.90
2018-05-08T07:17:48.872Z,17.00
2018-05-08T07:20:16.276Z,17.10
2018-05-08T07:22:43.699Z,17.10
2018-05-08T07:25:11.108Z,17.20
2018-05-08T07:27:38.517Z,17.20
2018-05-08T07:30:05.970Z,17.30
2018-05-08T07:32:33.331Z,17.40
2018-05-08T07:35:01.499Z,17.60
2018-05-08T07:37:29.675Z,17.70
2018-05-08T07:39:57.851Z,17.90
2018-05-08T07:42:25.263Z,17.90
2018-05-08T07:44:53.427Z,18.00
2018-05-08T07:47:21.598Z,18.10
2018-05-08T07:49:49.020Z,18.10
2018-05-08T07:52:17.184Z,18.40
2018-05-08T07:54:45.359Z,18.60
2018-05-08T07:57:12.759Z,18.60
2018-05-08T07:59:40.946Z,18.80
2018-05-08T08:02:08.678Z,18.80
2018-05-08T08:04:35.630Z,18.80
2018-05-08T08:07:02.611Z,19.00
2018-05-08T08:09:30.018Z,19.00
2018-05-08T08:11:56.998Z,19.00
2018-05-08T08:14:23.962Z,19.20
2018-05-08T08:16:51.390Z,19.20
2018-05-08T08:19:19.142Z,19.40
2018-05-08T08:21:46.081Z,19.40
2018-05-08T08:24:13.503Z,19.40
2018-05-08T08:26:40.914Z,19.40
2018-05-08T08:29:08.315Z,19.50
2018-05-08T08:31:35.760Z,19.70
2018-05-08T08:34:03.157Z,19.70
2018-05-08T08:36:30.588Z,19.80
2018-05-08T08:38:57.998Z,19.80
2018-05-08T08:41:25.452Z,19.90
2018-05-08T08:43:52.864Z,20.00
2018-05-08T08:46:19.818Z,20.20
2018-05-08T08:48:46.786Z,20.20
2018-05-08T08:51:13.747Z,20.30
2018-05-08T08:53:40.718Z,20.30
2018-05-08T08:56:07.730Z,20.40
2018-05-08T08:58:35.423Z,20.40
2018-05-08T09:01:04.362Z,20.40
2018-05-08T09:03:31.338Z,20.40
2018-05-08T09:05:59.104Z,20.50
2018-05-08T09:08:26.050Z,20.50
2018-05-08T09:10:53.011Z,20.50
2018-05-08T09:13:19.996Z,20.70
2018-05-08T09:15:47.722Z,20.80
2018-05-08T09:18:14.694Z,20.80
2018-05-08T09:20:42.098Z,21.00
2018-05-08T09:23:09.516Z,21.10
2018-05-08T09:25:36.921Z,21.20
2018-05-08T09:28:03.891Z,21.20
2018-05-08T09:30:31.332Z,21.30
2018-05-08T09:32:58.807Z,21.40
2018-05-08T09:35:26.451Z,21.70
2018-05-08T09:37:54.198Z,21.80
2018-05-08T09:40:21.954Z,21.90
2018-05-08T09:42:49.690Z,22.00
2018-05-08T09:45:17.462Z,22.20
2018-05-08T09:47:45.639Z,22.20
2018-05-08T09:50:12.607Z,22.20
2018-05-08T09:52:39.575Z,22.20
2018-05-08T09:55:07.302Z,22.20
2018-05-08T09:57:34.714Z,22.10
2018-05-08T10:00:01.678Z,22.20
2018-05-08T10:02:29.426Z,22.30
2018-05-08T10:04:56.847Z,22.20
2018-05-08T10:07:24.252Z,22.40
2018-05-08T10:09:51.657Z,22.50
2018-05-08T10:12:19.831Z,22.50
2018-05-08T10:14:47.243Z,22.50
2018-05-08T10:17:14.743Z,22.60
2018-05-08T10:19:42.150Z,22.60
2018-05-08T10:22:10.340Z,22.90
2018-05-08T10:24:37.742Z,22.80
2018-05-08T10:27:05.918Z,23.10
2018-05-08T10:29:33.646Z,23.20
2018-05-08T10:32:01.823Z,23.40
2018-05-08T10:34:29.554Z,23.50
2018-05-08T10:36:57.735Z,23.40
2018-05-08T10:39:25.146Z,23.40
2018-05-08T10:41:52.886Z,23.50
2018-05-08T10:44:20.312Z,23.50
2018-05-08T10:46:47.275Z,23.70
2018-05-08T10:49:15.451Z,24.10
2018-05-08T10:51:42.864Z,24.10
2018-05-08T10:54:09.820Z,24.30
2018-05-08T10:56:37.222Z,24.50
2018-05-08T10:59:04.248Z,24.90
2018-05-08T11:01:31.214Z,25.40
2018-05-08T11:03:58.956Z,25.90
2018-05-08T11:06:26.731Z,25.90
2018-05-08T11:08:53.695Z,25.90
2018-05-08T11:11:20.658Z,26.30
2018-05-08T11:13:47.617Z,26.70
2018-05-08T11:16:14.602Z,26.80
2018-05-08T11:18:41.583Z,27.00
2018-05-08T11:21:08.548Z,27.20
2018-05-08T11:23:35.531Z,27.30
2018-05-08T11:26:03.270Z,26.90
2018-05-08T11:28:31.015Z,27.00
2018-05-08T11:30:57.983Z,27.00
2018-05-08T11:33:24.950Z,27.30
2018-05-08T11:35:51.909Z,27.40
2018-05-08T11:38:19.648Z,28.00
2018-05-08T11:40:47.397Z,28.20
2018-05-08T11:43:14.362Z,28.20
2018-05-08T11:45:41.327Z,28.10
2018-05-08T11:48:08.288Z,28.00
2018-05-08T11:50:35.249Z,28.20
2018-05-08T11:53:02.222Z,28.60
2018-05-08T11:55:29.199Z,28.60
2018-05-08T11:57:56.938Z,27.80
2018-05-08T12:00:24.678Z,28.40
2018-05-08T12:02:51.651Z,28.40
2018-05-08T12:05:18.627Z,29.10
2018-05-08T12:07:45.582Z,29.80
2018-05-08T12:10:13.314Z,29.40
2018-05-08T12:12:40.283Z,29.40
2018-05-08T12:15:07.702Z,29.30
2018-05-08T12:17:35.465Z,29.30
2018-05-08T12:20:03.201Z,29.40
2018-05-08T12:22:30.926Z,30.10
2018-05-08T12:24:57.886Z,30.00
2018-05-08T12:27:25.653Z,29.80
2018-05-08T12:29:52.614Z,29.70
2018-05-08T12:32:19.574Z,29.50
2018-05-08T12:34:46.999Z,29.40
2018-05-08T12:37:13.976Z,29.80
2018-05-08T12:39:40.947Z,30.10
2018-05-08T12:42:07.941Z,30.50
2018-05-08T12:44:34.883Z,30.00
2018-05-08T12:47:01.842Z,30.10
2018-05-08T12:49:28.798Z,30.30
2018-05-08T12:51:55.777Z,29.80
2018-05-08T12:54:22.743Z,30.10
2018-05-08T12:56:49.710Z,30.80
2018-05-08T12:59:16.691Z,30.90
2018-05-08T13:01:43.667Z,31.30
2018-05-08T13:04:11.390Z,30.90
2018-05-08T13:06:38.382Z,30.90
2018-05-08T13:09:05.782Z,30.80
2018-05-08T13:11:33.528Z,31.40
2018-05-08T13:14:00.487Z,31.40
2018-05-08T13:16:27.463Z,31.00
2018-05-08T13:18:54.436Z,31.00
2018-05-08T13:21:22.164Z,30.90
2018-05-08T13:23:49.162Z,30.90
2018-05-08T13:26:16.096Z,31.50
2018-05-08T13:28:43.052Z,31.90
2018-05-08T13:31:10.853Z,31.30
2018-05-08T13:33:38.223Z,31.20
2018-05-08T13:36:05.639Z,31.20
2018-05-08T13:38:32.603Z,31.00
2018-05-08T13:41:00.009Z,31.30
2018-05-08T13:43:26.968Z,31.30
2018-05-08T13:45:54.382Z,31.70
2018-05-08T13:48:21.797Z,31.40
2018-05-08T13:50:49.605Z,31.30
2018-05-08T13:53:16.563Z,31.30
2018-05-08T13:55:44.293Z,31.10
2018-05-08T13:58:12.763Z,30.60
2018-05-08T14:00:39.722Z,30.50
2018-05-08T14:03:06.700Z,31.00
2018-05-08T14:05:34.091Z,31.10
2018-05-08T14:08:01.852Z,30.60
2018-05-08T14:10:28.807Z,30.70
2018-05-08T14:12:55.775Z,31.00
2018-05-08T14:15:22.764Z,31.10
2018-05-08T14:17:49.749Z,31.00
2018-05-08T14:20:17.500Z,30.70
2018-05-08T14:22:44.494Z,30.70
2018-05-08T14:25:11.460Z,31.10
2018-05-08T14:27:38.458Z,31.50
2018-05-08T14:30:05.457Z,31.50
2018-05-08T14:32:32.867Z,31.50
2018-05-08T14:35:00.592Z,30.20
2018-05-08T14:37:27.567Z,30.20
2018-05-08T14:39:54.532Z,30.50
2018-05-08T14:42:21.495Z,31.00
2018-05-08T14:44:49.248Z,31.00
2018-05-08T14:47:16.676Z,31.00
2018-05-08T14:49:44.083Z,30.90
2018-05-08T14:52:11.062Z,30.80
2018-05-08T14:54:38.825Z,31.00
2018-05-08T14:57:06.555Z,31.10
2018-05-08T14:59:34.427Z,31.00
2018-05-08T15:02:01.419Z,31.00
2018-05-08T15:04:28.496Z,30.90
2018-05-08T15:06:55.446Z,30.80
2018-05-08T15:09:22.460Z,30.70
2018-05-08T15:11:49.412Z,30.50
2018-05-08T15:14:17.543Z,30.70
2018-05-08T15:16:44.522Z,30.70
2018-05-08T15:19:11.498Z,30.70
2018-05-08T15:21:39.234Z,30.40
2018-05-08T15:24:06.984Z,30.10
2018-05-08T15:26:33.938Z,30.10
2018-05-08T15:29:00.989Z,30.40
2018-05-08T15:31:27.894Z,30.60
2018-05-08T15:33:55.627Z,30.70
2018-05-08T15:36:23.386Z,30.60
2018-05-08T15:38:51.118Z,30.70
2018-05-08T15:41:18.531Z,30.70
2018-05-08T15:43:45.940Z,30.70
2018-05-08T15:46:12.894Z,30.70
2018-05-08T15:48:39.857Z,30.90
2018-05-08T15:51:06.818Z,30.90
2018-05-08T15:53:34.223Z,30.60
2018-05-08T15:56:01.215Z,30.70
2018-05-08T15:58:28.186Z,30.80
2018-05-08T16:00:55.138Z,30.60
2018-05-08T16:03:22.870Z,30.60
2018-05-08T16:05:49.847Z,30.60
2018-05-08T16:08:16.818Z,30.50
2018-05-08T16:10:43.837Z,30.40
2018-05-08T16:13:10.870Z,30.50
2018-05-08T16:15:37.834Z,29.90
2018-05-08T16:18:05.575Z,30.30
2018-05-08T16:20:33.341Z,30.50
2018-05-08T16:23:01.071Z,30.10
2018-05-08T16:25:29.249Z,29.90
2018-05-08T16:27:57.416Z,29.70
2018-05-08T16:30:25.197Z,29.50
2018-05-08T16:32:52.915Z,29.60
2018-05-08T16:35:20.331Z,29.60
2018-05-08T16:37:47.753Z,29.60
2018-05-08T16:40:15.159Z,29.60
2018-05-08T16:42:42.567Z,29.70
2018-05-08T16:45:10.738Z,29.50
2018-05-08T16:47:38.163Z,29.50
2018-05-08T16:50:06.348Z,29.50
2018-05-08T16:52:33.775Z,29.40
2018-05-08T16:55:01.956Z,29.30
2018-05-08T16:57:29.373Z,29.30
2018-05-08T16:59:57.556Z,29.30
2018-05-08T17:02:24.977Z,29.30
2018-05-08T17:04:53.249Z,29.40
2018-05-08T17:07:20.631Z,29.30
2018-05-08T17:09:48.037Z,29.30
2018-05-08T17:12:15.443Z,29.10
2018-05-08T17:14:43.619Z,28.90
2018-05-08T17:17:11.799Z,28.70
2018-05-08T17:19:39.205Z,28.70
2018-05-08T17:22:07.403Z,28.40
2018-05-08T17:24:34.806Z,28.40
2018-05-08T17:27:02.988Z,28.30
2018-05-08T17:29:30.398Z,28.30
2018-05-08T17:31:57.804Z,28.40
2018-05-08T17:34:25.215Z,28.10
2018-05-08T17:36:52.634Z,27.50
2018-05-08T17:39:20.075Z,26.80
2018-05-08T17:41:48.231Z,26.10
2018-05-08T17:44:16.427Z,25.80
2018-05-08T17:46:43.847Z,25.80
2018-05-08T17:49:11.256Z,25.50
2018-05-08T17:51:38.680Z,25.20
2018-05-08T17:54:06.108Z,25.10
2018-05-08T17:56:33.516Z,24.90
2018-05-08T17:59:00.931Z,24.70
2018-05-08T18:01:29.115Z,24.40
2018-05-08T18:03:56.601Z,24.40
2018-05-08T18:06:24.702Z,24.10
2018-05-08T18:08:52.905Z,23.90
2018-05-08T18:11:20.386Z,23.90
2018-05-08T18:13:48.480Z,23.60
2018-05-08T18:16:15.903Z,23.50
2018-05-08T18:18:44.102Z,23.30
2018-05-08T18:21:11.504Z,23.30
2018-05-08T18:23:39.676Z,23.20
2018-05-08T18:26:07.083Z,23.20
2018-05-08T18:28:34.495Z,23.10
2018-05-08T18:31:01.909Z,23.00
2018-05-08T18:33:29.306Z,22.90
2018-05-08T18:35:56.707Z,22.80
2018-05-08T18:38:24.120Z,22.60
2018-05-08T18:40:51.533Z,22.50
2018-05-08T18:43:18.927Z,22.40
2018-05-08T18:45:46.342Z,22.30
2018-05-08T18:48:13.768Z,22.20
2018-05-08T18:50:41.959Z,21.90
2018-05-08T18:53:09.367Z,21.90
2018-05-08T18:55:37.580Z,21.70
2018-05-08T18:58:04.991Z,21.70
2018-05-08T19:00:38.076Z,21.60
2018-05-08T19:03:05.475Z,21.50
2018-05-08T19:05:33.662Z,21.30
2018-05-08T19:08:01.094Z,21.30
2018-05-08T19:10:29.267Z,21.10
2018-05-08T19:12:56.679Z,21.10
2018-05-08T19:15:29.651Z,21.10
2018-05-08T19:17:57.822Z,21.00
2018-05-08T19:20:26.028Z,20.80
2018-05-08T19:22:53.426Z,20.80
2018-05-08T19:25:21.607Z,20.70
2018-05-08T19:27:49.018Z,20.70
2018-05-08T19:30:22.851Z,20.50
2018-05-08T19:32:50.247Z,20.50
2018-05-08T19:35:23.962Z,20.40
2018-05-08T19:37:57.039Z,20.30
2018-05-08T19:40:24.449Z,20.30
2018-05-08T19:42:52.610Z,20.10
2018-05-08T19:45:20.783Z,20.10
2018-05-08T19:47:48.196Z,20.10
2018-05-08T19:50:15.604Z,20.00
2018-05-08T19:52:43.003Z,19.90
2018-05-08T19:55:10.421Z,19.90
2018-05-08T19:57:37.833Z,19.80
2018-05-08T20:00:05.233Z,19.80
2018-05-08T20:02:32.663Z,19.70
2018-05-08T20:05:00.893Z,19.60
2018-05-08T20:07:28.279Z,19.50
2018-05-08T20:09:55.674Z,19.50
2018-05-08T20:12:23.083Z,19.40
2018-05-08T20:14:50.495Z,19.40
2018-05-08T20:17:17.902Z,19.40
2018-05-08T20:19:45.303Z,19.30
2018-05-08T20:22:12.258Z,19.30
2018-05-08T20:24:39.242Z,19.20
2018-05-08T20:27:06.671Z,19.20
2018-05-08T20:29:34.447Z,19.10
2018-05-08T20:32:01.876Z,19.00
2018-05-08T20:34:29.276Z,19.00
2018-05-08T20:36:56.247Z,18.90
2018-05-08T20:39:23.229Z,18.80
2018-05-08T20:41:50.187Z,18.80
2018-05-08T20:44:18.355Z,18.70
2018-05-08T20:46:45.339Z,18.80
2018-05-08T20:49:12.334Z,18.70
2018-05-08T20:51:39.283Z,18.70
2018-05-08T20:54:06.675Z,18.70
2018-05-08T20:56:34.866Z,18.60
2018-05-08T20:59:01.848Z,18.60
2018-05-08T21:01:29.675Z,18.60
2018-05-08T21:03:56.646Z,18.50
2018-05-08T21:06:24.383Z,18.40
2018-05-08T21:08:51.799Z,18.40
2018-05-08T21:11:18.758Z,18.30
2018-05-08T21:13:45.711Z,18.30
2018-05-08T21:16:12.670Z,18.20
2018-05-08T21:18:40.091Z,18.20
2018-05-08T21:21:07.500Z,18.10
2018-05-08T21:23:34.915Z,18.10
2018-05-08T21:26:02.319Z,18.00
2018-05-08T21:28:35.047Z,18.00
2018-05-08T21:31:07.642Z,17.90
2018-05-08T21:33:34.611Z,17.90
2018-05-08T21:36:01.584Z,17.80
2018-05-08T21:38:29.302Z,17.70
2018-05-08T21:40:56.263Z,17.70
2018-05-08T21:43:24.439Z,17.60
2018-05-08T21:45:51.842Z,17.60
2018-05-08T21:48:19.247Z,17.60
2018-05-08T21:50:46.660Z,17.50
2018-05-08T21:53:14.068Z,17.50
2018-05-08T21:55:41.475Z,17.50
2018-05-08T21:58:08.876Z,17.40
2018-05-08T22:00:36.280Z,17.30
2018-05-08T22:03:03.686Z,17.30
2018-05-08T22:05:31.103Z,17.30
2018-05-08T22:07:58.511Z,17.20
2018-05-08T22:10:25.926Z,17.20
2018-05-08T22:12:52.906Z,17.10
2018-05-08T22:15:20.631Z,17.10
2018-05-08T22:17:47.588Z,17.10
2018-05-08T22:20:15.789Z,17.00
2018-05-08T22:22:43.172Z,17.00
2018-05-08T22:25:11.351Z,17.00
2018-05-08T22:27:38.781Z,17.00
2018-05-08T22:30:06.944Z,16.80
2018-05-08T22:32:35.133Z,16.80
2018-05-08T22:35:02.533Z,16.70
2018-05-08T22:37:30.720Z,16.60
2018-05-08T22:39:58.130Z,16.60
2018-05-08T22:42:26.323Z,16.60
2018-05-08T22:44:53.727Z,16.60
2018-05-08T22:47:21.905Z,16.70
2018-05-08T22:49:50.079Z,16.80
2018-05-08T22:52:17.502Z,16.80
2018-05-08T22:54:45.670Z,16.80
2018-05-08T22:57:13.070Z,16.80
2018-05-08T22:59:40.484Z,16.80
2018-05-08T23:02:07.903Z,16.70
2018-05-08T23:04:34.857Z,16.60
2018-05-08T23:07:01.832Z,16.40
2018-05-08T23:09:29.228Z,16.20
2018-05-08T23:11:56.643Z,16.20
2018-05-08T23:14:24.039Z,16.20
2018-05-08T23:16:50.998Z,16.10
2018-05-08T23:19:18.727Z,15.80
2018-05-08T23:21:45.702Z,15.80
2018-05-08T23:24:12.668Z,15.70
2018-05-08T23:26:39.633Z,15.60
2018-05-08T23:29:07.363Z,15.60
2018-05-08T23:31:34.329Z,15.50
2018-05-08T23:34:01.316Z,15.50
2018-05-08T23:36:28.278Z,15.50
2018-05-08T23:38:56.021Z,15.40
2018-05-08T23:41:23.763Z,15.30
2018-05-08T23:43:50.710Z,15.30
2018-05-08T23:46:18.442Z,15.20
2018-05-08T23:48:46.198Z,15.20
2018-05-08T23:51:13.929Z,15.20
2018-05-08T23:53:40.906Z,15.20
2018-05-08T23:56:07.870Z,15.20
2018-05-08T23:58:34.856Z,15.20
